aviador You're here:

KGXY Decoded Metar

GREELEY/WELD in CO, USA
Report Time2017-11-25 02:56:00
UTC Time2017-11-25 04:00:19
Flight Rules vfr VFR
Wind120° at 05 kt
W.Decomp.*RWY 09: 4.7 kt HW 1.6 kt RCW
RWY 16: 3.1 kt HW 3.9 kt LCW
W.Rank120° ranks 7
Current wind is below 120° avg. (6.9)
Visibility9999 m
Phenomena:N/A
Clouds:N/A
Expected CloudBase > 2,000 ft AGL from Temp-Dew spread
CeilingNone
Temp06°C (ISA 0)
Dew Point01°C (71% RH)
AAT2.4°C
QNH1017 hPa
Density Alt4,656 ft
Elevation4,659 ft
Report Wrong Elevation
Raw Report
METAR KGXY 250256Z AUTO 12005KT 10SM CLR 06/01 A3003 RMK AO2 SLP183
T00560006 51026=

Extra information for KGXY:More info

Metar Taf Metar & Taf Last 4 Metars F.Rules Stats Wind Profile Meteogram Temp Stats Airport Information Weather charts Add Link Nearby VenuesMetar ALERT Operation Metar Decoded Social comments

AIRNAV info for KGXY